x

South Kodiak - 310nm Ssw Of Kodiak, Ak (46066) Wave Buoy

6:50pm - Wed 1st Oct 2014 All times are UTC.

  • Sig Wave height 20.3ft
  • Swell Direction
  • Peak Period 11s
  • Average Period 8s
  • Wind
    36mph, 45mph gusts
  • Sea Temp 54°f
  • Air Temp 54°f
  • Sea Pressure 1004.1mb

More Historic Weather Station data

Upgrade to MSW Pro to gain access to the past 30 days of data for over 8000 Wavebouys and Weather Stations around the globe.

Join Pro

Comparision Forecast

View Surf forecast
   
Wed 10/01 6:50pm 20.5ft 11s 8s 36 45 mph 1004.1mb 54f 54f
5:50pm 16ft 10s 7s 31 40 mph 1004.9mb 54f 54f
4:50pm 17.5ft 10s 8s 34 43 mph 1004.9mb 54f 53f
3:50pm 17ft 10s 8s 34 45 mph 1005.7mb 54f 53f
2:50pm 15ft 9s 7s 34 43 mph 1006.4mb 55f 54f
1:50pm 15.5ft 9s 7s 34 43 mph 1007.3mb 55f 55f
12:50pm 15.5ft 9s 7s 36 43 mph 1008.1mb 55f 55f
11:50am 14.5ft 8s 7s 34 43 mph 1009.2mb 55f 55f
10:50am 13ft 8s 7s 34 43 mph 1010.1mb 55f 54f
9:50am 12.5ft 8s 7s 34 43 mph 1010.9mb 55f 55f
8:50am 11ft 7s 6s 29 38 mph 1011.6mb 55f 55f
7:50am 10ft 7s 6s 31 38 mph 1012.7mb 55f 54f
6:50am 9.5ft 7s 6s 27 34 mph 1013.4mb 55f 54f
5:50am 8ft 6s 6s 27 34 mph 1014.2mb 55f 54f
4:50am 7ft 6s 5s 27 34 mph 1014.7mb 55f 54f
3:50am 6ft 5s 5s 25 29 mph 1015.7mb 55f 54f
2:50am 5.5ft 5s 5s 25 29 mph 1015.6mb 55f 54f
1:50am 5ft 5s 5s 25 29 mph 1015.6mb 55f 53f
12:50am 5ft 11s 5s 20 25 mph 1016.5mb 55f 53f
Tue 09/30 11:50pm 4.5ft 11s 5s 20 25 mph 1017.4mb 55f 53f
10:50pm 4.5ft 11s 5s 18 22 mph 1018.7mb 55f 53f
9:50pm 4.5ft 11s 5s 18 20 mph 1019.6mb 55f 53f
8:50pm 4.5ft 11s 5s 18 20 mph 1019.7mb 55f 53f
7:50pm 4.5ft 6s 5s 16 20 mph 1020.3mb 55f 53f
6:50pm 4.5ft 7s 5s 16 18 mph 1020.4mb 55f 53f
5:50pm 4.5ft 12s 5s 16 18 mph 1020mb 55f 53f
4:50pm 4.5ft 11s 6s 16 20 mph 1020.5mb 55f 53f
3:50pm 5ft 7s 6s 16 20 mph 1020.5mb 55f 52f
2:50pm 5ft 11s 7s 11 13 mph 1021mb 55f 53f
1:50pm 4.5ft 14s 7s 13 16 mph 1020.4mb 55f 53f
12:50pm 5ft 15s 8s 13 16 mph 1020.5mb 55f 53f
11:50am 5ft 15s 8s 9 11 mph 1021.3mb 55f 53f
10:50am 4.5ft 15s 7s 11 13 mph 1021.1mb 55f 53f
9:50am 4ft 15s 7s 11 13 mph 1021.1mb 55f 53f
8:50am 3.5ft 15s 6s 11 16 mph 1021.3mb 55f 53f
7:50am 3.5ft 15s 6s 11 13 mph 1021.3mb 55f 53f
6:50am 3.5ft 15s 6s 7 9 mph 1021.1mb 55f 54f
5:50am 3.5ft 16s 6s 4 7 mph 1020.8mb 55f 53f
4:50am 4.5ft 16s 5s 7 9 mph 1020.3mb 55f 54f
3:50am 4.5ft 16s 6s 4 7 mph 1020mb 55f 54f
2:50am 4.5ft 7s 6s 2 4 mph 1019.5mb 55f 54f
1:50am 4.5ft 7s 6s  -  mph 1019.6mb 56f 53f
12:50am 4ft 7s 6s  -  2 mph 1019.4mb 56f 53f
Mon 09/29 11:50pm 3.5ft 7s 6s  -  mph 1019.8mb 56f 55f
10:50pm 4ft 8s 6s 2 4 mph 1019.6mb 56f 54f
9:50pm 3.5ft 8s 6s  -  mph 1020.1mb 56f 54f
8:50pm 4ft 7s 6s 4
mph
1019.8mb 55f 53f
7:50pm 3.5ft 8s 6s 7
mph
1019.5mb 55f 54f
6:50pm 4.5ft 8s 6s 7 9 mph 1019mb 55f 54f
5:50pm 4.5ft 8s 6s 9
mph
1018.7mb 55f 54f
4:50pm 5ft 8s 6s 11 13 mph 1018.3mb 55f 53f
3:50pm 6ft 8s 6s 9 11 mph 1018mb 55f 53f
2:50pm 6.5ft 7s 6s 9 16 mph 1017.7mb 55f 53f
1:50pm 6.5ft 8s 6s 11 16 mph 1017.5mb 55f 53f
12:50pm 7.5ft 7s 6s 11 13 mph 1017.7mb 55f 53f
11:50am 6ft 7s 6s 11 13 mph 1017.7mb 55f 53f
10:50am 7ft 8s 7s 9 11 mph 1017.8mb 55f 53f
9:50am 6ft 8s 6s 9
mph
1017.7mb 55f 53f
7:50am 7ft 8s 7s 9 11 mph 1017.1mb 55f 54f
6:50am 5.5ft 8s 6s 11 13 mph 1017mb 55f 54f
5:50am 6.5ft 8s 6s 11 13 mph 1016.3mb 55f 54f
4:50am 6.5ft 8s 6s 13 18 mph 1015.6mb 55f 54f
3:50am 7ft 8s 6s 13 18 mph 1015mb 55f 54f
2:50am 8ft 9s 6s 16 18 mph 1014.3mb 55f 54f
1:50am 7ft 8s 6s 16 20 mph 1013.8mb 55f 55f
12:50am 8ft 8s 6s 16 18 mph 1013.5mb 55f 54f
Sun 09/28 11:50pm 8ft 8s 6s 18 20 mph 1013.4mb 55f 54f
10:50pm 8.5ft 8s 6s 16 20 mph 1013.4mb 55f 54f
9:50pm 9ft 8s 7s 18 22 mph 1013.2mb 55f 54f
8:50pm 8ft 8s 6s 18 20 mph 1012.9mb 55f 54f
7:50pm 8ft 8s 6s 20 22 mph 1012.5mb 55f 54f
6:50pm 8.5ft 8s 6s 18 22 mph 1011.9mb 55f 54f
5:50pm 8ft 9s 6s 22 27 mph 1011.2mb 55f 54f
4:50pm 9ft 8s 6s 18 20 mph 1010.4mb 55f 54f
3:50pm 8ft 9s 6s 18 25 mph 1010mb 55f 54f
2:50pm 9.5ft 9s 6s 20 25 mph 1009.4mb 55f 54f
1:50pm 9ft 9s 6s 20 27 mph 1008.7mb 55f 54f
12:50pm 10ft 9s 7s 20 25 mph 1008.4mb 55f 54f
11:50am 10ft 8s 7s 20 22 mph 1008mb 55f 54f
10:50am 11ft 8s 7s 20 25 mph 1007.5mb 55f 54f
9:50am 10.5ft 9s 7s 20 25 mph 1007mb 55f 54f
8:50am 11ft 8s 7s 25 29 mph 1006.7mb 55f 54f
7:50am 10ft 8s 6s 25 31 mph 1006.3mb 55f 54f
6:50am 10.5ft 8s 7s 27 31 mph 1005.9mb 55f 54f
5:50am 11ft 9s 7s 29 34 mph 1005mb 55f 54f
4:50am 11ft 9s 7s 27 31 mph 1004.4mb 55f 54f
3:50am 11ft 8s 7s 27 34 mph 1003.6mb 55f 54f
2:50am 11ft 10s 7s 27 31 mph 1003mb 55f 54f
1:50am 11ft 8s 7s 25 31 mph 1002.3mb 55f 54f
12:50am 11ft 8s 7s 25 31 mph 1001.7mb 55f 54f
Sat 09/27 11:50pm 12ft 9s 7s 25 31 mph 1001.1mb 55f 53f
10:50pm 11.5ft 9s 7s 27 34 mph 1000.6mb 55f 53f
9:50pm 12.5ft 10s 7s 29 38 mph 1000.3mb 55f 53f
8:50pm 12.5ft 10s 7s 27 34 mph 999.7mb 55f 53f
7:50pm 15ft 11s 8s 29 36 mph 998.8mb 55f 53f